Jacksonville, Oregon
Current Conditions -  °F | °C
As of 12:53 PM on Thursday 23 Oct 2014 (Local Time) from KMFR Reporting Station
Light Rain Light Rain  
Wind Chill: 58°   Ceiling: 400
Heat Index: 58°   Visibility: 4mi
Dew Point: 56°   Wind: 3mph
Humidity: 93%   Direction: 60°ENE
Pressure: 29.97"   Gusts: NA
Location:  42.31°N, 122.97°W
Report Text: KMFR 231953Z 06003KT 4SM -RA BR BKN004 BKN011 OVC024 14/13 A2997 RMK AO2 RAE10B31 SLP144 P0003 T01440133
Loading
Personal Weather Stations






























Interactive Weather Map
Tropical Storm Tracking
New forecast layout! Learn more

10-Day Weather Forecast

Advertisements
Track Severe Weather on mobile